createdAt,value
2023-04-14T00:00:10.484Z,6.30
2023-04-14T00:03:21.710Z,6.30
2023-04-14T00:06:31.788Z,6.20
2023-04-14T00:09:40.574Z,6.20
2023-04-14T00:12:48.897Z,6.20
2023-04-14T00:15:57.276Z,6.10
2023-04-14T00:19:06.003Z,6.10
2023-04-14T00:22:15.805Z,6.10
2023-04-14T00:25:24.136Z,6.10
2023-04-14T00:28:32.475Z,6.10
2023-04-14T00:31:43.894Z,6.00
2023-04-14T00:34:52.271Z,6.00
2023-04-14T00:38:02.069Z,6.00
2023-04-14T00:41:11.977Z,6.00
2023-04-14T00:44:20.495Z,6.00
2023-04-14T00:47:29.133Z,6.00
2023-04-14T00:50:37.542Z,6.00
2023-04-14T00:53:49.215Z,6.00
2023-04-14T00:56:58.006Z,6.00
2023-04-14T01:00:07.642Z,5.90
2023-04-14T01:03:16.714Z,5.90
2023-04-14T01:06:26.856Z,5.90
2023-04-14T01:09:37.237Z,5.90
2023-04-14T01:13:00.421Z,5.90
2023-04-14T01:16:17.832Z,5.90
2023-04-14T01:19:42.407Z,5.90
2023-04-14T01:22:54.683Z,5.90
2023-04-14T01:26:30.466Z,5.90
2023-04-14T01:30:00.771Z,6.00
2023-04-14T01:33:16.667Z,5.90
2023-04-14T01:36:31.815Z,5.80
2023-04-14T01:39:42.651Z,5.70
2023-04-14T01:42:57.455Z,5.60
2023-04-14T01:46:12.933Z,5.50
2023-04-14T01:49:24.585Z,5.40
2023-04-14T01:52:33.683Z,5.40
2023-04-14T01:55:44.397Z,5.40
2023-04-14T01:58:54.510Z,5.40
2023-04-14T02:02:06.050Z,5.30
2023-04-14T02:05:18.239Z,5.30
2023-04-14T02:08:28.052Z,5.40
2023-04-14T02:11:37.802Z,5.40
2023-04-14T02:14:48.677Z,5.40
2023-04-14T02:17:58.249Z,5.40
2023-04-14T02:21:09.656Z,5.40
2023-04-14T02:24:21.152Z,5.40
2023-04-14T02:27:34.841Z,5.50
2023-04-14T02:30:45.855Z,5.50
2023-04-14T02:33:56.863Z,5.50
2023-04-14T02:37:11.141Z,5.40
2023-04-14T02:40:26.951Z,5.30
2023-04-14T02:43:42.765Z,5.20
2023-04-14T02:47:03.722Z,5.20
2023-04-14T02:50:17.151Z,5.10
2023-04-14T02:53:36.541Z,5.10
2023-04-14T02:56:56.937Z,5.20
2023-04-14T03:00:09.527Z,5.20
2023-04-14T03:03:27.339Z,5.20
2023-04-14T03:06:39.668Z,5.20
2023-04-14T03:09:51.573Z,5.20
2023-04-14T03:13:04.523Z,5.20
2023-04-14T03:16:14.489Z,5.20
2023-04-14T03:19:25.002Z,5.20
2023-04-14T03:22:38.995Z,5.20
2023-04-14T03:25:49.803Z,5.20
2023-04-14T03:29:06.624Z,5.20
2023-04-14T03:32:17.596Z,5.20
2023-04-14T03:35:26.364Z,5.10
2023-04-14T03:38:37.411Z,5.00
2023-04-14T03:41:51.671Z,5.00
2023-04-14T03:45:03.443Z,4.90
2023-04-14T03:48:18.420Z,4.90
2023-04-14T03:51:33.298Z,4.90
2023-04-14T03:54:44.166Z,4.90
2023-04-14T03:57:57.577Z,4.80
2023-04-14T04:01:08.021Z,4.80
2023-04-14T04:04:16.925Z,4.80
2023-04-14T04:07:29.533Z,4.70
2023-04-14T04:10:40.012Z,4.80
2023-04-14T04:13:51.411Z,4.90
2023-04-14T04:17:03.884Z,4.80
2023-04-14T04:20:15.988Z,4.90
2023-04-14T04:23:26.963Z,4.70
2023-04-14T04:26:36.617Z,4.70
2023-04-14T04:29:46.979Z,4.70
2023-04-14T04:32:55.776Z,4.80
2023-04-14T04:36:06.581Z,4.80
2023-04-14T04:39:20.566Z,4.80
2023-04-14T04:42:28.987Z,4.90
2023-04-14T04:46:00.529Z,4.90
2023-04-14T04:49:10.753Z,4.90
2023-04-14T04:52:19.176Z,4.90
2023-04-14T04:55:27.506Z,5.00
2023-04-14T04:58:36.016Z,5.00
2023-04-14T05:01:45.829Z,5.10
2023-04-14T05:04:54.385Z,5.20
2023-04-14T05:08:02.789Z,5.30
2023-04-14T05:11:11.242Z,5.30
2023-04-14T05:14:19.518Z,5.40
2023-04-14T05:17:29.314Z,5.50
2023-04-14T05:20:37.765Z,5.60
2023-04-14T05:23:47.018Z,5.60
2023-04-14T05:27:12.589Z,5.70
2023-04-14T05:30:22.418Z,5.80
2023-04-14T05:33:32.155Z,5.80
2023-04-14T05:36:40.436Z,5.90
2023-04-14T05:39:48.704Z,6.00
2023-04-14T05:42:57.309Z,6.10
2023-04-14T05:46:05.763Z,6.20
2023-04-14T05:49:15.542Z,6.30
2023-04-14T05:52:23.882Z,6.60
2023-04-14T05:55:32.475Z,6.80
2023-04-14T05:58:40.932Z,7.00
2023-04-14T06:01:49.454Z,7.10
2023-04-14T06:05:00.069Z,7.30
2023-04-14T06:08:08.490Z,7.60
2023-04-14T06:11:16.818Z,7.90
2023-04-14T06:14:25.341Z,8.30
2023-04-14T06:17:33.898Z,9.40
2023-04-14T06:20:43.688Z,10.30
2023-04-14T06:23:51.994Z,11.70
2023-04-14T06:27:00.721Z,12.60
2023-04-14T06:30:10.433Z,13.20
2023-04-14T06:33:18.729Z,13.60
2023-04-14T06:36:28.830Z,14.30
2023-04-14T06:39:37.195Z,14.80
2023-04-14T06:42:45.520Z,15.30
2023-04-14T06:45:53.861Z,15.30
2023-04-14T06:49:02.637Z,15.80
2023-04-14T06:52:12.751Z,16.90
2023-04-14T06:55:21.766Z,17.40
2023-04-14T06:58:30.568Z,17.50
2023-04-14T07:01:38.928Z,18.00
2023-04-14T07:04:48.549Z,18.50
2023-04-14T07:08:00.042Z,18.90
2023-04-14T07:11:10.645Z,19.50
2023-04-14T07:14:19.049Z,20.10
2023-04-14T07:17:27.418Z,21.30
2023-04-14T07:20:35.979Z,21.90
2023-04-14T07:23:45.698Z,22.50
2023-04-14T07:26:53.981Z,22.70
2023-04-14T07:30:02.337Z,22.70
2023-04-14T07:33:10.745Z,23.30
2023-04-14T07:36:19.309Z,23.40
2023-04-14T07:39:29.558Z,23.70
2023-04-14T07:42:38.089Z,24.00
2023-04-14T07:45:46.513Z,23.00
2023-04-14T07:48:54.871Z,21.40
2023-04-14T07:52:03.199Z,21.30
2023-04-14T07:55:13.008Z,21.10
2023-04-14T07:58:24.266Z,21.40
2023-04-14T08:01:33.608Z,21.20
2023-04-14T08:04:43.179Z,20.50
2023-04-14T08:07:51.954Z,20.00
2023-04-14T08:11:01.891Z,20.80
2023-04-14T08:14:10.650Z,21.10
2023-04-14T08:17:19.345Z,20.90
2023-04-14T08:20:27.686Z,19.80
2023-04-14T08:23:36.217Z,19.90
2023-04-14T08:26:45.887Z,20.00
2023-04-14T08:29:54.297Z,20.10
2023-04-14T08:33:02.670Z,20.30
2023-04-14T08:36:11.286Z,20.30
2023-04-14T08:39:19.539Z,19.60
2023-04-14T08:42:29.327Z,19.10
2023-04-14T08:45:38.190Z,18.50
2023-04-14T08:48:48.359Z,18.70
2023-04-14T08:51:58.049Z,18.50
2023-04-14T08:55:08.269Z,18.20
2023-04-14T08:58:18.088Z,17.80
2023-04-14T09:01:27.330Z,17.90
2023-04-14T09:04:37.417Z,17.90
2023-04-14T09:07:46.306Z,17.90
2023-04-14T09:10:55.500Z,18.30
2023-04-14T09:14:07.213Z,18.10
2023-04-14T09:17:15.640Z,19.00
2023-04-14T09:20:40.203Z,19.50
2023-04-14T09:23:49.360Z,19.80
2023-04-14T09:26:57.791Z,18.90
2023-04-14T09:30:10.264Z,18.60
2023-04-14T09:33:22.866Z,18.10
2023-04-14T09:36:31.443Z,18.10
2023-04-14T09:39:50.874Z,17.70
2023-04-14T09:42:59.335Z,17.80
2023-04-14T09:46:10.722Z,17.10
2023-04-14T09:49:19.491Z,17.20
2023-04-14T09:52:40.980Z,17.10
2023-04-14T09:55:52.409Z,16.70
2023-04-14T09:59:03.453Z,16.70
2023-04-14T10:02:14.041Z,16.70
2023-04-14T10:05:23.476Z,16.40
2023-04-14T10:08:42.344Z,16.30
2023-04-14T10:12:09.843Z,15.90
2023-04-14T10:15:18.726Z,16.00
2023-04-14T10:18:28.496Z,16.30
2023-04-14T10:21:37.745Z,16.20
2023-04-14T10:24:46.360Z,16.10
2023-04-14T10:27:55.046Z,16.10
2023-04-14T10:31:05.747Z,15.90
2023-04-14T10:34:16.840Z,15.70
2023-04-14T10:37:25.691Z,15.70
2023-04-14T10:40:47.611Z,15.80
2023-04-14T10:43:56.628Z,15.80
2023-04-14T10:47:08.438Z,15.30
2023-04-14T10:50:19.760Z,15.20
2023-04-14T10:53:28.231Z,15.40
2023-04-14T10:56:40.409Z,15.50
2023-04-14T10:59:49.287Z,15.70
2023-04-14T11:03:05.355Z,15.60
2023-04-14T11:06:15.203Z,15.60
2023-04-14T11:09:28.689Z,15.40
2023-04-14T11:12:44.418Z,15.50
2023-04-14T11:15:58.329Z,15.60
2023-04-14T11:19:15.362Z,15.30
2023-04-14T11:26:03.391Z,15.20
2023-04-14T11:29:12.212Z,15.10
2023-04-14T11:32:20.627Z,15.00
2023-04-14T11:35:30.128Z,15.20
2023-04-14T11:38:40.485Z,15.00
2023-04-14T11:41:51.136Z,14.90
2023-04-14T11:44:59.710Z,14.90
2023-04-14T11:48:10.039Z,14.90
2023-04-14T11:51:20.594Z,14.70
2023-04-14T11:54:36.603Z,14.90
2023-04-14T11:57:47.255Z,14.70
2023-04-14T12:00:57.610Z,14.70
2023-04-14T12:04:06.584Z,14.60
2023-04-14T12:07:16.997Z,14.60
2023-04-14T12:10:26.128Z,14.50
2023-04-14T12:13:42.096Z,14.50
2023-04-14T12:16:50.665Z,14.60
2023-04-14T12:19:58.983Z,14.40
2023-04-14T12:23:07.374Z,14.40
2023-04-14T12:26:16.085Z,14.40
2023-04-14T12:29:25.850Z,14.40
2023-04-14T12:32:40.745Z,14.30
2023-04-14T12:35:52.706Z,14.30
2023-04-14T12:39:06.398Z,14.20
2023-04-14T12:42:14.663Z,14.30
2023-04-14T12:45:24.631Z,14.40
2023-04-14T12:48:41.716Z,14.50
2023-04-14T12:51:50.137Z,14.60
2023-04-14T12:54:58.484Z,14.70
2023-04-14T12:58:06.880Z,14.60
2023-04-14T13:01:18.081Z,14.40
2023-04-14T13:04:26.497Z,14.30
2023-04-14T13:07:34.880Z,14.40
2023-04-14T13:10:43.204Z,14.50
2023-04-14T13:13:52.358Z,14.60
2023-04-14T13:17:02.666Z,14.40
2023-04-14T13:20:12.235Z,13.90
2023-04-14T13:23:20.757Z,13.80
2023-04-14T13:26:29.056Z,13.80
2023-04-14T13:29:37.342Z,13.90
2023-04-14T13:32:47.129Z,13.60
2023-04-14T13:35:56.504Z,13.70
2023-04-14T13:39:04.985Z,13.60
2023-04-14T13:42:13.330Z,13.40
2023-04-14T13:45:21.621Z,13.30
2023-04-14T13:48:32.619Z,13.00
2023-04-14T13:51:41.092Z,13.00
2023-04-14T13:54:49.331Z,12.90
2023-04-14T13:57:57.717Z,12.70
2023-04-14T14:01:13.323Z,12.70
2023-04-14T14:04:23.090Z,12.60
2023-04-14T14:07:31.690Z,12.50
2023-04-14T14:10:40.094Z,12.60
2023-04-14T14:13:48.425Z,12.60
2023-04-14T14:16:57.272Z,12.70
2023-04-14T14:20:08.601Z,12.50
2023-04-14T14:23:16.976Z,12.30
2023-04-14T14:26:25.314Z,12.30
2023-04-14T14:29:35.019Z,12.20
2023-04-14T14:32:43.373Z,12.20
2023-04-14T14:35:53.145Z,12.00
2023-04-14T14:39:01.654Z,11.90
2023-04-14T14:42:09.952Z,11.90
2023-04-14T14:45:18.877Z,11.80
2023-04-14T14:48:34.647Z,11.70
2023-04-14T14:51:44.676Z,11.60
2023-04-14T14:54:54.248Z,11.60
2023-04-14T14:58:03.895Z,11.70
2023-04-14T15:01:12.901Z,11.60
2023-04-14T15:04:21.819Z,11.70
2023-04-14T15:07:32.068Z,11.50
2023-04-14T15:10:40.493Z,11.60
2023-04-14T15:13:48.840Z,11.50
2023-04-14T15:16:57.242Z,11.40
2023-04-14T15:20:06.624Z,11.50
2023-04-14T15:23:16.759Z,11.40
2023-04-14T15:26:25.127Z,11.40
2023-04-14T15:29:33.406Z,11.40
2023-04-14T15:32:41.841Z,11.50
2023-04-14T15:35:50.312Z,11.50
2023-04-14T15:39:00.133Z,11.60
2023-04-14T15:42:08.624Z,11.60
2023-04-14T15:45:17.146Z,11.50
2023-04-14T15:48:25.739Z,11.50
2023-04-14T15:51:34.229Z,11.60
2023-04-14T15:54:44.877Z,11.50
2023-04-14T15:57:53.205Z,11.50
2023-04-14T16:01:01.680Z,11.50
2023-04-14T16:04:10.087Z,11.50
2023-04-14T16:07:18.529Z,11.50
2023-04-14T16:10:29.061Z,11.40
2023-04-14T16:13:37.416Z,11.50
2023-04-14T16:16:47.186Z,11.50
2023-04-14T16:19:55.631Z,11.50
2023-04-14T16:23:03.956Z,11.40
2023-04-14T16:26:13.758Z,11.40
2023-04-14T16:29:22.188Z,11.50
2023-04-14T16:32:30.897Z,11.40
2023-04-14T16:35:39.192Z,11.40
2023-04-14T16:38:49.100Z,11.40
2023-04-14T16:41:58.795Z,11.50
2023-04-14T16:45:08.898Z,11.40
2023-04-14T16:48:17.741Z,11.40
2023-04-14T16:51:27.434Z,11.30
2023-04-14T16:54:36.733Z,11.40
2023-04-14T16:57:46.409Z,11.40
2023-04-14T17:00:54.810Z,11.30
2023-04-14T17:04:04.082Z,11.40
2023-04-14T17:07:12.912Z,11.30
2023-04-14T17:10:21.270Z,11.30
2023-04-14T17:13:30.951Z,11.30
2023-04-14T17:16:39.686Z,11.30
2023-04-14T17:19:48.200Z,11.30
2023-04-14T17:22:57.823Z,11.30
2023-04-14T17:26:06.753Z,11.20
2023-04-14T17:29:17.015Z,11.20
2023-04-14T17:32:25.492Z,11.20
2023-04-14T17:35:35.568Z,11.20
2023-04-14T17:38:44.660Z,11.10
2023-04-14T17:41:53.072Z,11.10
2023-04-14T17:45:03.267Z,11.00
2023-04-14T17:48:11.794Z,10.90
2023-04-14T17:51:20.662Z,10.90
2023-04-14T17:54:31.298Z,10.90
2023-04-14T17:57:40.080Z,10.90
2023-04-14T18:00:50.353Z,10.90
2023-04-14T18:04:00.390Z,10.90
2023-04-14T18:07:09.214Z,10.80
2023-04-14T18:10:18.080Z,10.70
2023-04-14T18:13:27.708Z,10.70
2023-04-14T18:16:37.463Z,10.60
2023-04-14T18:19:45.874Z,10.60
2023-04-14T18:22:54.914Z,10.60
2023-04-14T18:29:14.955Z,10.50
2023-04-14T18:32:25.445Z,10.50
2023-04-14T18:35:34.522Z,10.40
2023-04-14T18:38:42.784Z,10.40
2023-04-14T18:41:51.077Z,10.40
2023-04-14T18:44:59.516Z,10.30
2023-04-14T18:48:09.422Z,10.30
2023-04-14T18:51:18.062Z,10.30
2023-04-14T18:54:26.374Z,10.30
2023-04-14T18:57:34.703Z,10.20
2023-04-14T19:00:45.381Z,10.20
2023-04-14T19:03:57.575Z,10.10
2023-04-14T19:07:05.913Z,10.10
2023-04-14T19:10:14.458Z,10.00
2023-04-14T19:13:24.170Z,10.00
2023-04-14T19:16:32.992Z,10.10
2023-04-14T19:19:42.857Z,10.00
2023-04-14T19:22:51.464Z,10.00
2023-04-14T19:26:00.397Z,10.00
2023-04-14T19:29:08.806Z,10.00
2023-04-14T19:32:17.717Z,9.90
2023-04-14T19:35:27.727Z,9.80
2023-04-14T19:38:36.380Z,9.70
2023-04-14T19:41:44.760Z,9.80
2023-04-14T19:44:53.333Z,9.80
2023-04-14T19:48:15.994Z,9.70
2023-04-14T19:51:32.936Z,9.70
2023-04-14T19:54:41.250Z,9.70
2023-04-14T19:57:49.573Z,9.70
2023-04-14T20:00:58.219Z,9.60
2023-04-14T20:04:11.884Z,9.60
2023-04-14T20:07:22.289Z,9.60
2023-04-14T20:10:30.933Z,9.60
2023-04-14T20:13:39.776Z,9.60
2023-04-14T20:16:48.176Z,9.60
2023-04-14T20:19:58.310Z,9.60
2023-04-14T20:23:07.973Z,9.60
2023-04-14T20:26:16.546Z,9.60
2023-04-14T20:29:25.270Z,9.60
2023-04-14T20:32:33.933Z,9.60
2023-04-14T20:35:43.479Z,9.60
2023-04-14T20:38:53.276Z,9.50
2023-04-14T20:42:01.584Z,9.50
2023-04-14T20:45:10.927Z,9.50
2023-04-14T20:48:19.501Z,9.50
2023-04-14T20:51:27.836Z,9.50
2023-04-14T20:54:37.668Z,9.40
2023-04-14T20:57:46.240Z,9.40
2023-04-14T21:00:54.646Z,9.40
2023-04-14T21:04:03.022Z,9.40
2023-04-14T21:07:11.684Z,9.40
2023-04-14T21:10:21.435Z,9.40
2023-04-14T21:15:28.207Z,9.40
2023-04-14T21:16:59.419Z,9.40
2023-04-14T21:20:09.056Z,9.40
2023-04-14T21:23:20.259Z,9.40
2023-04-14T21:26:30.033Z,9.30
2023-04-14T21:29:38.302Z,9.30
2023-04-14T21:32:46.646Z,9.30
2023-04-14T21:35:56.822Z,9.30
2023-04-14T21:39:05.463Z,9.30
2023-04-14T21:42:15.352Z,9.20
2023-04-14T21:45:23.731Z,9.20
2023-04-14T21:48:32.277Z,9.30
2023-04-14T21:51:40.693Z,9.30
2023-04-14T21:54:50.254Z,9.30
2023-04-14T21:58:00.396Z,9.20
2023-04-14T22:01:09.936Z,9.20
2023-04-14T22:04:33.019Z,9.20
2023-04-14T22:07:45.579Z,9.20
2023-04-14T22:10:54.913Z,9.20
2023-04-14T22:14:05.871Z,9.20
2023-04-14T22:17:14.261Z,9.20
2023-04-14T22:20:23.730Z,9.30
2023-04-14T22:23:33.045Z,9.20
2023-04-14T22:26:42.545Z,9.20
2023-04-14T22:29:52.291Z,9.20
2023-04-14T22:33:00.738Z,9.20
2023-04-14T22:36:10.117Z,9.10
2023-04-14T22:39:18.432Z,9.10
2023-04-14T22:42:27.969Z,9.20
2023-04-14T22:45:38.465Z,9.20
2023-04-14T22:48:46.888Z,9.20
2023-04-14T22:51:55.351Z,9.20
2023-04-14T22:55:03.775Z,9.20
2023-04-14T22:58:16.690Z,9.20
2023-04-14T23:01:27.982Z,9.20
2023-04-14T23:04:36.819Z,9.20
2023-04-14T23:07:45.198Z,9.20
2023-04-14T23:10:55.557Z,9.20
2023-04-14T23:14:04.951Z,9.20
2023-04-14T23:17:14.764Z,9.20
2023-04-14T23:20:23.294Z,9.20
2023-04-14T23:23:31.695Z,9.20
2023-04-14T23:26:40.043Z,9.20
2023-04-14T23:29:48.359Z,9.20
2023-04-14T23:32:58.204Z,9.20
2023-04-14T23:36:07.873Z,9.20
2023-04-14T23:39:16.448Z,9.20
2023-04-14T23:42:24.944Z,9.20
2023-04-14T23:45:37.732Z,9.20
2023-04-14T23:48:47.886Z,9.20
2023-04-14T23:51:57.927Z,9.20
2023-04-14T23:55:07.122Z,9.10
2023-04-14T23:58:26.133Z,9.10
